Gold Beach, OR

7:07 PM PST on December 26, 2014 (GMT -0800)
RAWS FLYNN PRAIRIE OR US | Change Station
CLOSE
Current Station
Personal Weather Station
Location: Gold Beach, OR
Elevation: 1542 ft
Nearby Weather Stations

Elev 1542 ft 42.40 °N, 124.38 °W | Updated 54 minutes ago

Clear
Clear
42 °F
Feels Like 42 °F
N
1
Wind Variable Wind from NE
Gusts 2.0 mph

Today
High -- | Low -- °F
--% Chance of Precip.
Yesterday
High -- | Low -- °F
Precip. -- in
7:45 AM 4:50 PM
Waxing Crescent, 32% visible
Pressure 30.30 in
Visibility 10.0 miles
Clouds Clear
Windchill 42 °F
Dew Point 41 °F
Humidity 98%
Rainfall 0.00 in
Snow Depth Not available.
UV 0 out of 12
Pollen 2.00 out of 12
Air Quality Not available.
Flu Activity Not available.
METAR KBOK 270256Z AUTO 00000KT 10SM CLR 08/04 A3030 RMK AO2 51007 T00770044 SLP261

More Conditions Fewer Conditions

Pressure 30.30 in
Visibility 10.0 miles
Clouds Clear
Windchill 42 °F
Dew Point 41 °F
Humidity 98%
Rainfall 0.00 in
Snow Depth Not available.
UV 0 out of 12
Pollen 2.00 out of 12
Air Quality Not available.
Flu Activity Not available.
METAR KBOK 270256Z AUTO 00000KT 10SM CLR 08/04 A3030 RMK AO2 51007 T00770044 SLP261

More Conditions Fewer Conditions

10-Day Weather Forecast

Almanac

Astronomy

Dec. 26, 2014 Rise Set
Actual Time
Civil Twilight
Nautical Twilight
Astronomical Twilight
Moon
Length of Visible Light
Length of Day
Tomorrow will be .
, % of the Moon is Illuminated

Today's Extremes

State Highs State Lows

Community

WunderPhotos

Upload Photos

1,780,830 photos uploaded!

WunderBlogs® & News

Nearby

Air Quality

  Air Quality AQ Index Pollutant
Not available.

Snow Depth

Station Depth Elevation

Earthquake Activity

City Distance Mag. Time & Date
Minimum magnitude displayed is 2.5.

Coastal Water Temperatures

Place Temperature

Nearby Weather Stations